Airfield :
LOGIN :

Register | Disclaimer

   EN    FR    IT 

 










Legend :    VFR   Marginal VFR   IFR   Intensive IFR   Very Intensive IFR
Visi :
Ceiling :
>= 8 km
>= 3000ft
5 to 8 km
1000 to 3000 ft
1500m to 5 km
500 to 1000 ft
800 to 1500m
200 to 500 ft
< 800m
< 200 ft
Symbols :   Thunderstorms  Fog  Heavy snow  Heavy precipitations  Wind > 20 kt
SIGMETs :     Misc.  Thunderstorms  Icing  Turbulence  Mountain Waves  Volcanic Ashes







- Airport Elevation : 141 ft
- IATA code : TGD


LYPG - Podgorica - Montenegro

CURRENT METAR :
  • 172200Z 35003KT 320V070 CAVOK 03/M01 Q1026 NOSIG

EXPIRED METARs :
  • 172130Z 05002KT CAVOK 04/M01 Q1026 NOSIG
  • 172100Z VRB01KT CAVOK 04/00 Q1026 NOSIG
  • 172030Z VRB01KT CAVOK 04/M01 Q1026 NOSIG
  • 172000Z VRB02KT CAVOK 06/M01 Q1026 NOSIG
  • 171930Z VRB01KT CAVOK 06/M01 Q1025 NOSIG

TAF TAF LYPG
Valid from the 17 at 18:00 until the 18 at 18:00 UTC


171700Z 1718/1818 36005KT CAVOK TX17/1813Z TNM01/1806Z
No reported NOTAMs for that airfield.



MET'MAP, your aeronautical weather chart ! - Copyright ORBIFLY December 2007 - Disclaimer

ORBIFLY MET'MAP TEAM :

Programming & Development : Alexandra Zaïnal
Concept & Development : Baudouin d'Aumeries
Co-Development & Prog : Marc-Olivier Méhu
Technical & hardware support : Manuel Goepfert

Contact : metmap@orbifly.com




SOURCES & CREDITS :

   NOAA